Pagrindinis puslapis
METAR-TAF:

METAR-TAF

Oro uostai :

Kazvinas, Iranas

platuma: 36-15N, ilguma: 050-00E, Aukštis: 1278 m

Dabartinis oras

Ataskaita buvo paskelbta 19 minutes, ne 08:00 UTC
Vėjas 6 kt iš Pietryčių
Temperatūra 24°C
Drėgmė 22%
Slėgis 1022 hPa
Matomumas 10 km arba daugiau
nėra debesų žemiau 1500 m ir nėra kamuolinių lietaus debesų

METAR: OIIK 180800Z 14006KT CAVOK 24/01 Q1022

Laikas: 11:49 (08:19 UTC)


TAF: trūkstamas

Orai ataskaitas ir orų prognozės (METAR, TAF).

turimą stotys yra geltonos ir raudonos taškus žemėlapyje.

Perkelti pele per norėdami pamatyti stoties vardą.

Tada spustelėkite, norėdami matyti oro stebėjimo ir prognozės.

Norėdami pakeisti žemėlapį: spustelėkite ant žalios mygtukų su juodo kryžiaus žemyn,; žalią mygtuką su brūkšneliu, jei norite nutolinti; arba žalių rodyklių gretimoms žemėlapius.


METAR-TAF: